Time,TemperatureF,DewpointF,PressureIn,WindDirection,WindDirectionDegrees,WindSpeedMPH,WindSpeedGustMPH,Humidity,HourlyPrecipIn,Conditions,Clouds,dailyrainin,SoftwareType,DateUTC
2013-11-14 00:00:00,40.0,40.0,30.32,East,90,0.0,2.0,100,0.00,,,-99.99,Weather View 32 v60,2013-11-14 08:00:00,
2013-11-14 00:05:00,40.0,40.0,30.32,East,90,0.0,1.0,100,0.00,,,-99.99,Weather View 32 v60,2013-11-14 08:05:00,
2013-11-14 00:15:00,39.0,39.0,30.32,East,90,0.0,1.0,100,0.00,,,-99.99,Weather View 32 v60,2013-11-14 08:15:00,
2013-11-14 00:20:00,39.0,39.0,30.32,East,90,0.0,1.0,100,0.00,,,-99.99,Weather View 32 v60,2013-11-14 08:20:00,
2013-11-14 00:25:00,39.0,39.0,30.32,East,90,0.0,1.0,100,0.00,,,-99.99,Weather View 32 v60,2013-11-14 08:25:00,
2013-11-14 00:34:00,38.0,38.0,30.32,East,90,0.0,2.0,100,0.00,,,-99.99,Weather View 32 v60,2013-11-14 08:34:00,
2013-11-14 00:40:00,38.0,38.0,30.32,East,90,0.0,2.0,100,0.00,,,-99.99,Weather View 32 v60,2013-11-14 08:40:00,
2013-11-14 00:45:00,38.0,38.0,30.31,SE,135,0.0,2.0,100,0.00,,,-99.99,Weather View 32 v60,2013-11-14 08:45:00,
2013-11-14 00:50:00,38.0,38.0,30.31,SE,135,0.0,2.0,100,0.00,,,-99.99,Weather View 32 v60,2013-11-14 08:50:00,
2013-11-14 01:00:00,38.0,38.0,30.31,SW,225,0.0,2.0,100,0.00,,,-99.99,Weather View 32 v60,2013-11-14 09:00:00,
2013-11-14 01:05:00,38.0,38.0,30.31,SW,225,0.0,2.0,100,0.00,,,-99.99,Weather View 32 v60,2013-11-14 09:05:00,
2013-11-14 01:10:00,38.0,38.0,30.31,SW,225,0.0,2.0,100,0.00,,,-99.99,Weather View 32 v60,2013-11-14 09:10:00,
2013-11-14 01:20:00,38.0,38.0,30.31,SW,225,0.0,2.0,100,0.00,,,-99.99,Weather View 32 v60,2013-11-14 09:20:00,
2013-11-14 01:25:00,38.0,38.0,30.30,SW,225,0.0,2.0,100,0.00,,,-99.99,Weather View 32 v60,2013-11-14 09:25:00,
2013-11-14 01:35:00,38.0,38.0,30.30,SW,225,0.0,2.0,100,0.00,,,-99.99,Weather View 32 v60,2013-11-14 09:35:00,
2013-11-14 01:40:00,38.0,38.0,30.30,ESE,112,0.0,2.0,100,0.00,,,-99.99,Weather View 32 v60,2013-11-14 09:40:00,
2013-11-14 01:45:00,38.0,38.0,30.29,ESE,112,0.0,2.0,100,0.00,,,-99.99,Weather View 32 v60,2013-11-14 09:45:00,
2013-11-14 01:50:00,38.0,38.0,30.29,ESE,112,0.0,2.0,100,0.00,,,-99.99,Weather View 32 v60,2013-11-14 09:50:00,
2013-11-14 01:55:00,38.0,38.0,30.29,ESE,112,0.0,2.0,100,0.00,,,-99.99,Weather View 32 v60,2013-11-14 09:55:00,
2013-11-14 02:00:00,38.0,38.0,30.29,ESE,112,0.0,2.0,100,0.00,,,-99.99,Weather View 32 v60,2013-11-14 10:00:00,
2013-11-14 02:10:00,38.0,38.0,30.29,ESE,112,0.0,2.0,100,0.00,,,-99.99,Weather View 32 v60,2013-11-14 10:10:00,
2013-11-14 02:15:00,38.0,38.0,30.29,ESE,112,0.0,2.0,100,0.00,,,-99.99,Weather View 32 v60,2013-11-14 10:15:00,
2013-11-14 02:25:00,38.0,38.0,30.29,WNW,292,0.0,2.0,100,0.00,,,-99.99,Weather View 32 v60,2013-11-14 10:25:00,
2013-11-14 02:30:00,39.0,39.0,30.29,WNW,292,0.0,2.0,100,0.00,,,-99.99,Weather View 32 v60,2013-11-14 10:30:00,
2013-11-14 02:35:00,39.0,39.0,30.29,WNW,292,0.0,2.0,100,0.00,,,-99.99,Weather View 32 v60,2013-11-14 10:35:00,
2013-11-14 02:45:00,38.0,38.0,30.29,WNW,292,0.0,2.0,100,0.00,,,-99.99,Weather View 32 v60,2013-11-14 10:45:00,
2013-11-14 02:50:00,38.0,38.0,30.29,WNW,292,0.0,2.0,100,0.00,,,-99.99,Weather View 32 v60,2013-11-14 10:50:00,
2013-11-14 02:55:00,38.0,38.0,30.29,WNW,292,0.0,2.0,100,0.00,,,-99.99,Weather View 32 v60,2013-11-14 10:55:00,
2013-11-14 03:00:00,38.0,38.0,30.29,WNW,292,0.0,2.0,100,0.00,,,-99.99,Weather View 32 v60,2013-11-14 11:00:00,
2013-11-14 03:10:00,38.0,38.0,30.28,WNW,292,0.0,2.0,100,0.00,,,-99.99,Weather View 32 v60,2013-11-14 11:10:00,
2013-11-14 03:15:00,38.0,38.0,30.27,WNW,292,0.0,2.0,100,0.00,,,-99.99,Weather View 32 v60,2013-11-14 11:15:00,
2013-11-14 03:20:00,38.0,38.0,30.27,WNW,292,0.0,2.0,100,0.00,,,-99.99,Weather View 32 v60,2013-11-14 11:20:00,
2013-11-14 03:30:00,39.0,39.0,30.27,WNW,292,0.0,0.0,100,0.00,,,-99.99,Weather View 32 v60,2013-11-14 11:30:00,
2013-11-14 03:35:00,39.0,39.0,30.26,WNW,292,0.0,0.0,100,0.00,,,-99.99,Weather View 32 v60,2013-11-14 11:35:00,
2013-11-14 03:45:00,39.0,39.0,30.25,WNW,292,0.0,0.0,100,0.00,,,-99.99,Weather View 32 v60,2013-11-14 11:45:00,
2013-11-14 03:50:00,39.0,39.0,30.25,WNW,292,0.0,0.0,100,0.00,,,-99.99,Weather View 32 v60,2013-11-14 11:50:00,
2013-11-14 04:00:00,39.0,39.0,30.26,East,90,0.0,0.0,100,0.00,,,-99.99,Weather View 32 v60,2013-11-14 12:00:00,
2013-11-14 04:05:00,39.0,39.0,30.24,East,90,1.0,2.0,100,0.00,,,-99.99,Weather View 32 v60,2013-11-14 12:05:00,
2013-11-14 04:10:00,39.0,39.0,30.24,East,90,0.0,2.0,100,0.00,,,-99.99,Weather View 32 v60,2013-11-14 12:10:00,
2013-11-14 04:20:00,39.0,39.0,30.24,East,90,0.0,2.0,100,0.00,,,-99.99,Weather View 32 v60,2013-11-14 12:20:00,
2013-11-14 04:25:00,39.0,39.0,30.24,East,90,0.0,2.0,100,0.00,,,-99.99,Weather View 32 v60,2013-11-14 12:25:00,
2013-11-14 04:30:00,39.0,39.0,30.24,East,90,0.0,2.0,100,0.00,,,-99.99,Weather View 32 v60,2013-11-14 12:30:00,
2013-11-14 04:36:00,39.0,39.0,30.23,East,90,0.0,2.0,100,0.00,,,-99.99,Weather View 32 v60,2013-11-14 12:36:00,
2013-11-14 04:45:00,39.0,39.0,30.22,East,90,0.0,2.0,100,0.00,,,-99.99,Weather View 32 v60,2013-11-14 12:45:00,
2013-11-14 04:50:00,39.0,39.0,30.22,East,90,0.0,2.0,100,0.00,,,-99.99,Weather View 32 v60,2013-11-14 12:50:00,
2013-11-14 04:55:00,39.0,39.0,30.23,East,90,0.0,2.0,100,0.00,,,-99.99,Weather View 32 v60,2013-11-14 12:55:00,
2013-11-14 05:00:00,39.0,39.0,30.23,East,90,0.0,2.0,100,0.00,,,-99.99,Weather View 32 v60,2013-11-14 13:00:00,
2013-11-14 05:10:00,39.0,39.0,30.23,East,90,0.0,0.0,100,0.00,,,-99.99,Weather View 32 v60,2013-11-14 13:10:00,
2013-11-14 05:15:00,39.0,39.0,30.22,East,90,0.0,2.0,100,0.00,,,-99.99,Weather View 32 v60,2013-11-14 13:15:00,
2013-11-14 05:20:00,39.0,39.0,30.22,East,90,0.0,2.0,100,0.00,,,-99.99,Weather View 32 v60,2013-11-14 13:20:00,
2013-11-14 05:30:00,39.0,39.0,30.22,East,90,0.0,2.0,100,0.00,,,-99.99,Weather View 32 v60,2013-11-14 13:30:00,
2013-11-14 05:35:00,39.0,39.0,30.21,East,90,0.0,2.0,100,0.00,,,-99.99,Weather View 32 v60,2013-11-14 13:35:00,
2013-11-14 05:40:00,39.0,39.0,30.21,WSW,247,0.0,2.0,100,0.00,,,-99.99,Weather View 32 v60,2013-11-14 13:40:00,
2013-11-14 05:45:00,39.0,39.0,30.21,WSW,247,0.0,2.0,100,0.00,,,-99.99,Weather View 32 v60,2013-11-14 13:45:00,
2013-11-14 05:55:00,39.0,39.0,30.21,WSW,247,0.0,2.0,100,0.00,,,-99.99,Weather View 32 v60,2013-11-14 13:55:00,
2013-11-14 06:00:00,39.0,39.0,30.21,WSW,247,0.0,2.0,100,0.00,,,-99.99,Weather View 32 v60,2013-11-14 14:00:00,
2013-11-14 06:05:00,39.0,39.0,30.20,WSW,247,0.0,2.0,100,0.00,,,-99.99,Weather View 32 v60,2013-11-14 14:05:00,
2013-11-14 06:15:00,40.0,40.0,30.20,WSW,247,0.0,2.0,100,0.00,,,-99.99,Weather View 32 v60,2013-11-14 14:15:00,
2013-11-14 06:20:00,40.0,40.0,30.20,WSW,247,0.0,2.0,100,0.00,,,-99.99,Weather View 32 v60,2013-11-14 14:20:00,
2013-11-14 06:25:00,40.0,40.0,30.20,WSW,247,0.0,2.0,100,0.00,,,-99.99,Weather View 32 v60,2013-11-14 14:25:00,
2013-11-14 06:30:00,40.0,40.0,30.20,WSW,247,0.0,2.0,100,0.00,,,-99.99,Weather View 32 v60,2013-11-14 14:30:00,
2013-11-14 06:37:00,40.0,40.0,30.19,WSW,247,0.0,2.0,100,0.00,,,-99.99,Weather View 32 v60,2013-11-14 14:37:00,
2013-11-14 06:45:00,39.0,39.0,30.19,WSW,247,4.0,10.0,100,0.00,,,-99.99,Weather View 32 v60,2013-11-14 14:45:00,
2013-11-14 06:50:00,40.0,40.0,30.19,West,270,2.0,10.0,100,0.00,,,-99.99,Weather View 32 v60,2013-11-14 14:50:00,
2013-11-14 06:55:00,40.0,40.0,30.18,SW,225,0.0,10.0,100,0.00,,,-99.99,Weather View 32 v60,2013-11-14 14:55:00,
2013-11-14 07:05:00,40.0,40.0,30.18,WNW,292,5.0,10.0,100,0.00,,,-99.99,Weather View 32 v60,2013-11-14 15:05:00,
2013-11-14 07:15:00,40.0,40.0,30.18,NW,315,17.0,17.0,100,0.00,,,-99.99,Weather View 32 v60,2013-11-14 15:15:00,
2013-11-14 07:25:00,41.0,40.7,30.18,West,270,16.0,21.0,99,0.00,,,-99.99,Weather View 32 v60,2013-11-14 15:25:00,
2013-11-14 07:35:00,42.0,40.9,30.17,West,270,8.0,21.0,96,0.00,,,-99.99,Weather View 32 v60,2013-11-14 15:35:00,
2013-11-14 07:45:00,43.0,40.5,30.17,West,270,14.0,21.0,91,0.00,,,-99.99,Weather View 32 v60,2013-11-14 15:45:00,
2013-11-14 07:55:00,44.0,41.3,30.17,West,270,3.0,21.0,90,0.00,,,-99.99,Weather View 32 v60,2013-11-14 15:55:00,
2013-11-14 08:00:00,44.0,41.3,30.17,West,270,8.0,21.0,90,0.00,,,-99.99,Weather View 32 v60,2013-11-14 16:00:00,
2013-11-14 08:05:00,44.0,40.7,30.16,West,270,12.0,21.0,88,0.00,,,-99.99,Weather View 32 v60,2013-11-14 16:05:00,
2013-11-14 08:15:00,44.0,40.4,30.16,NW,315,16.0,21.0,87,0.00,,,-99.99,Weather View 32 v60,2013-11-14 16:15:00,
2013-11-14 08:25:00,45.0,41.1,30.17,WNW,292,12.0,22.0,86,0.00,,,-99.99,Weather View 32 v60,2013-11-14 16:25:00,
2013-11-14 08:35:00,45.0,40.5,30.16,West,270,15.0,27.0,84,0.00,,,-99.99,Weather View 32 v60,2013-11-14 16:35:00,
2013-11-14 08:40:00,45.0,40.5,30.16,WNW,292,20.0,27.0,84,0.00,,,-99.99,Weather View 32 v60,2013-11-14 16:40:00,
2013-11-14 08:45:00,46.0,42.0,30.17,West,270,13.0,27.0,86,0.00,,,-99.99,Weather View 32 v60,2013-11-14 16:45:00,
2013-11-14 08:55:00,46.0,42.3,30.17,West,270,15.0,27.0,87,0.00,,,-99.99,Weather View 32 v60,2013-11-14 16:55:00,
2013-11-14 09:00:00,46.0,42.0,30.17,NW,315,15.0,27.0,86,0.00,,,-99.99,Weather View 32 v60,2013-11-14 17:00:00,
2013-11-14 09:05:00,46.0,42.0,30.17,West,270,19.0,27.0,86,0.00,,,-99.99,Weather View 32 v60,2013-11-14 17:05:00,
2013-11-14 09:15:00,45.0,40.5,30.17,NW,315,10.0,27.0,84,0.00,,,-99.99,Weather View 32 v60,2013-11-14 17:15:00,
2013-11-14 09:20:00,46.0,41.1,30.17,WNW,292,9.0,27.0,83,0.00,,,-99.99,Weather View 32 v60,2013-11-14 17:20:00,
2013-11-14 09:25:00,46.0,40.8,30.17,NW,315,13.0,27.0,82,0.00,,,-99.99,Weather View 32 v60,2013-11-14 17:25:00,
2013-11-14 09:35:00,46.0,40.5,30.17,West,270,12.0,23.0,81,0.00,,,-99.99,Weather View 32 v60,2013-11-14 17:35:00,
2013-11-14 09:40:00,46.0,40.2,30.17,West,270,7.0,23.0,80,0.00,,,-99.99,Weather View 32 v60,2013-11-14 17:40:00,
2013-11-14 09:45:00,47.0,40.5,30.16,NW,315,9.0,23.0,78,0.00,,,-99.99,Weather View 32 v60,2013-11-14 17:45:00,
2013-11-14 09:50:00,47.0,41.1,30.16,WNW,292,10.0,23.0,80,0.00,,,-99.99,Weather View 32 v60,2013-11-14 17:50:00,
2013-11-14 10:00:00,47.0,40.5,30.16,West,270,13.0,23.0,78,0.00,,,-99.99,Weather View 32 v60,2013-11-14 18:00:00,
2013-11-14 10:05:00,47.0,39.1,30.15,WNW,292,10.0,23.0,74,0.00,,,-99.99,Weather View 32 v60,2013-11-14 18:05:00,
2013-11-14 10:10:00,47.0,38.4,30.15,WNW,292,17.0,23.0,72,0.00,,,-99.99,Weather View 32 v60,2013-11-14 18:10:00,
2013-11-14 10:20:00,48.0,40.4,30.14,NW,315,16.0,23.0,75,0.00,,,-99.99,Weather View 32 v60,2013-11-14 18:20:00,
2013-11-14 10:25:00,48.0,42.4,30.13,NW,315,16.0,23.0,81,0.00,,,-99.99,Weather View 32 v60,2013-11-14 18:25:00,
2013-11-14 10:30:00,48.0,43.1,30.13,WNW,292,9.0,23.0,83,0.00,,,-99.99,Weather View 32 v60,2013-11-14 18:30:00,
2013-11-14 10:40:00,48.0,43.1,30.14,NW,315,9.0,21.0,83,0.00,,,-99.99,Weather View 32 v60,2013-11-14 18:40:00,
2013-11-14 10:45:00,47.0,41.8,30.13,NW,315,14.0,22.0,82,0.00,,,-99.99,Weather View 32 v60,2013-11-14 18:45:00,
2013-11-14 10:50:00,47.0,41.5,30.13,WNW,292,13.0,24.0,81,0.00,,,-99.99,Weather View 32 v60,2013-11-14 18:50:00,
2013-11-14 10:55:00,47.0,40.8,30.13,NW,315,11.0,24.0,79,0.00,,,-99.99,Weather View 32 v60,2013-11-14 18:55:00,
2013-11-14 11:05:00,47.0,40.5,30.14,West,270,16.0,24.0,78,0.00,,,-99.99,Weather View 32 v60,2013-11-14 19:05:00,
2013-11-14 11:10:00,47.0,40.5,30.14,NW,315,12.0,24.0,78,0.00,,,-99.99,Weather View 32 v60,2013-11-14 19:10:00,
2013-11-14 11:20:00,47.0,40.8,30.14,NW,315,12.0,24.0,79,0.00,,,-99.99,Weather View 32 v60,2013-11-14 19:20:00,
2013-11-14 11:25:00,47.0,40.2,30.13,NW,315,15.0,24.0,77,0.00,,,-99.99,Weather View 32 v60,2013-11-14 19:25:00,
2013-11-14 11:30:00,47.0,40.2,30.13,NW,315,12.0,24.0,77,0.00,,,-99.99,Weather View 32 v60,2013-11-14 19:30:00,
2013-11-14 11:40:00,47.0,39.1,30.13,West,270,9.0,24.0,74,0.00,,,-99.99,Weather View 32 v60,2013-11-14 19:40:00,
2013-11-14 11:50:00,49.0,40.7,30.12,NW,315,10.0,19.0,73,0.00,,,-99.99,Weather View 32 v60,2013-11-14 19:50:00,
2013-11-14 11:55:00,49.0,39.3,30.11,NW,315,13.0,19.0,69,0.00,,,-99.99,Weather View 32 v60,2013-11-14 19:55:00,
2013-11-14 12:05:00,50.0,41.0,30.10,West,270,12.0,19.0,71,0.00,,,-99.99,Weather View 32 v60,2013-11-14 20:05:00,
2013-11-14 12:10:00,50.0,41.3,30.10,West,270,8.0,19.0,72,0.00,,,-99.99,Weather View 32 v60,2013-11-14 20:10:00,
2013-11-14 12:15:00,50.0,41.3,30.11,West,270,13.0,19.0,72,0.00,,,-99.99,Weather View 32 v60,2013-11-14 20:15:00,
2013-11-14 12:25:00,50.0,39.5,30.09,SW,225,12.0,19.0,67,0.00,,,-99.99,Weather View 32 v60,2013-11-14 20:25:00,
2013-11-14 12:30:00,50.0,40.2,30.09,NW,315,8.0,19.0,69,0.00,,,-99.99,Weather View 32 v60,2013-11-14 20:30:00,
2013-11-14 12:35:00,50.0,40.2,30.09,SW,225,9.0,19.0,69,0.00,,,-99.99,Weather View 32 v60,2013-11-14 20:35:00,
2013-11-14 12:41:00,50.0,40.6,30.09,West,270,9.0,19.0,70,0.00,,,-99.99,Weather View 32 v60,2013-11-14 20:41:00,
2013-11-14 12:50:00,50.0,41.0,30.10,NW,315,8.0,18.0,71,0.00,,,-99.99,Weather View 32 v60,2013-11-14 20:50:00,
2013-11-14 12:55:00,50.0,41.0,30.09,WNW,292,14.0,18.0,71,0.00,,,-99.99,Weather View 32 v60,2013-11-14 20:55:00,
2013-11-14 13:05:00,50.0,41.7,30.09,West,270,14.0,19.0,73,0.00,,,-99.99,Weather View 32 v60,2013-11-14 21:05:00,
2013-11-14 13:10:00,50.0,41.7,30.09,NW,315,6.0,19.0,73,0.00,,,-99.99,Weather View 32 v60,2013-11-14 21:10:00,
2013-11-14 13:15:00,49.0,40.7,30.08,NW,315,11.0,19.0,73,0.00,,,-99.99,Weather View 32 v60,2013-11-14 21:15:00,
2013-11-14 13:25:00,50.0,40.6,30.09,West,270,9.0,19.0,70,0.00,,,-99.99,Weather View 32 v60,2013-11-14 21:25:00,
2013-11-14 13:30:00,50.0,39.5,30.09,NW,315,11.0,19.0,67,0.00,,,-99.99,Weather View 32 v60,2013-11-14 21:30:00,
2013-11-14 13:35:00,51.0,40.8,30.08,NW,315,9.0,19.0,68,0.00,,,-99.99,Weather View 32 v60,2013-11-14 21:35:00,
2013-11-14 13:42:00,51.0,41.5,30.08,NW,315,14.0,19.0,70,0.00,,,-99.99,Weather View 32 v60,2013-11-14 21:42:00,
2013-11-14 13:50:00,51.0,42.3,30.08,NW,315,9.0,21.0,72,0.00,,,-99.99,Weather View 32 v60,2013-11-14 21:50:00,
2013-11-14 13:55:00,51.0,42.3,30.07,NW,315,11.0,21.0,72,0.00,,,-99.99,Weather View 32 v60,2013-11-14 21:55:00,
2013-11-14 14:05:00,50.0,43.4,30.08,WNW,292,8.0,21.0,78,0.00,,,-99.99,Weather View 32 v60,2013-11-14 22:05:00,
2013-11-14 14:10:00,49.0,43.1,30.08,NW,315,6.0,21.0,80,0.00,,,-99.99,Weather View 32 v60,2013-11-14 22:10:00,
2013-11-14 14:20:00,48.0,42.4,30.08,NW,315,16.0,21.0,81,0.00,,,-99.99,Weather View 32 v60,2013-11-14 22:20:00,
2013-11-14 14:25:00,48.0,42.8,30.07,NW,315,10.0,21.0,82,0.00,,,-99.99,Weather View 32 v60,2013-11-14 22:25:00,
2013-11-14 14:30:00,48.0,42.4,30.07,West,270,10.0,21.0,81,0.00,,,-99.99,Weather View 32 v60,2013-11-14 22:30:00,
2013-11-14 14:40:00,48.0,42.8,30.08,WNW,292,10.0,21.0,82,0.00,,,-99.99,Weather View 32 v60,2013-11-14 22:40:00,
2013-11-14 14:45:00,48.0,43.4,30.08,West,270,15.0,24.0,84,0.00,,,-99.99,Weather View 32 v60,2013-11-14 22:45:00,
2013-11-14 14:50:00,48.0,43.1,30.08,WNW,292,10.0,24.0,83,0.00,,,-99.99,Weather View 32 v60,2013-11-14 22:50:00,
2013-11-14 14:55:00,48.0,42.8,30.08,NW,315,11.0,24.0,82,0.00,,,-99.99,Weather View 32 v60,2013-11-14 22:55:00,
2013-11-14 15:05:00,48.0,42.1,30.07,NW,315,9.0,24.0,80,0.00,,,-99.99,Weather View 32 v60,2013-11-14 23:05:00,
2013-11-14 15:10:00,48.0,42.4,30.07,NW,315,9.0,24.0,81,0.00,,,-99.99,Weather View 32 v60,2013-11-14 23:10:00,
2013-11-14 15:20:00,48.0,42.8,30.07,WSW,247,10.0,24.0,82,0.00,,,-99.99,Weather View 32 v60,2013-11-14 23:20:00,
2013-11-14 15:25:00,48.0,42.1,30.07,West,270,18.0,24.0,80,0.00,,,-99.99,Weather View 32 v60,2013-11-14 23:25:00,
2013-11-14 15:30:00,48.0,42.1,30.07,NW,315,15.0,24.0,80,0.00,,,-99.99,Weather View 32 v60,2013-11-14 23:30:00,
2013-11-14 15:40:00,48.0,42.4,30.07,NW,315,15.0,24.0,81,0.00,,,-99.99,Weather View 32 v60,2013-11-14 23:40:00,
2013-11-14 15:45:00,47.0,41.5,30.07,NW,315,12.0,24.0,81,0.00,,,-99.99,Weather View 32 v60,2013-11-14 23:45:00,
2013-11-14 15:50:00,47.0,41.5,30.07,WNW,292,18.0,25.0,81,0.00,,,-99.99,Weather View 32 v60,2013-11-14 23:50:00,
2013-11-14 15:55:00,47.0,41.8,30.07,WNW,292,6.0,25.0,82,0.00,,,-99.99,Weather View 32 v60,2013-11-14 23:55:00,
2013-11-14 16:05:00,47.0,40.5,30.07,West,270,14.0,26.0,78,0.00,,,-99.99,Weather View 32 v60,2013-11-15 00:05:00,
2013-11-14 16:10:00,48.0,41.8,30.07,SW,225,4.0,28.0,79,0.00,,,-99.99,Weather View 32 v60,2013-11-15 00:10:00,
2013-11-14 16:20:00,47.0,41.8,30.06,NW,315,12.0,28.0,82,0.00,,,-99.99,Weather View 32 v60,2013-11-15 00:20:00,
2013-11-14 16:25:00,47.0,41.5,30.07,NW,315,12.0,28.0,81,0.00,,,-99.99,Weather View 32 v60,2013-11-15 00:25:00,
2013-11-14 16:30:00,47.0,41.8,30.07,NW,315,6.0,28.0,82,0.00,,,-99.99,Weather View 32 v60,2013-11-15 00:30:00,
2013-11-14 16:40:00,47.0,42.1,30.08,West,270,6.0,28.0,83,0.00,,,-99.99,Weather View 32 v60,2013-11-15 00:40:00,
2013-11-14 16:45:00,47.0,41.8,30.08,NW,315,9.0,28.0,82,0.00,,,-99.99,Weather View 32 v60,2013-11-15 00:45:00,
2013-11-14 16:50:00,46.0,40.8,30.08,NW,315,7.0,28.0,82,0.00,,,-99.99,Weather View 32 v60,2013-11-15 00:50:00,
2013-11-14 17:00:00,46.0,39.8,30.08,West,270,8.0,28.0,79,0.00,,,-99.99,Weather View 32 v60,2013-11-15 01:00:00,
2013-11-14 17:05:00,46.0,39.5,30.08,WSW,247,5.0,28.0,78,0.00,,,-99.99,Weather View 32 v60,2013-11-15 01:05:00,
2013-11-14 17:10:00,46.0,39.2,30.08,SW,225,1.0,24.0,77,0.00,,,-99.99,Weather View 32 v60,2013-11-15 01:10:00,
2013-11-14 17:20:00,46.0,39.8,30.09,West,270,10.0,20.0,79,0.00,,,-99.99,Weather View 32 v60,2013-11-15 01:20:00,
2013-11-14 17:25:00,46.0,39.5,30.08,NW,315,4.0,18.0,78,0.00,,,-99.99,Weather View 32 v60,2013-11-15 01:25:00,
2013-11-14 17:35:00,46.0,39.5,30.09,NW,315,10.0,18.0,78,0.00,,,-99.99,Weather View 32 v60,2013-11-15 01:35:00,
2013-11-14 17:40:00,46.0,39.8,30.09,SW,225,3.0,18.0,79,0.00,,,-99.99,Weather View 32 v60,2013-11-15 01:40:00,
2013-11-14 17:45:00,46.0,39.8,30.09,SW,225,1.0,18.0,79,0.00,,,-99.99,Weather View 32 v60,2013-11-15 01:45:00,
2013-11-14 17:50:00,46.0,40.2,30.09,SW,225,4.0,18.0,80,0.00,,,-99.99,Weather View 32 v60,2013-11-15 01:50:00,
2013-11-14 18:00:00,45.0,39.5,30.09,West,270,7.0,18.0,81,0.00,,,-99.99,Weather View 32 v60,2013-11-15 02:00:00,
2013-11-14 18:05:00,45.0,39.5,30.10,NW,315,12.0,18.0,81,0.00,,,-99.99,Weather View 32 v60,2013-11-15 02:05:00,
2013-11-14 18:15:00,46.0,40.5,30.09,West,270,7.0,20.0,81,0.00,,,-99.99,Weather View 32 v60,2013-11-15 02:15:00,
2013-11-14 18:20:00,46.0,40.5,30.09,West,270,12.0,20.0,81,0.00,,,-99.99,Weather View 32 v60,2013-11-15 02:20:00,
2013-11-14 18:25:00,46.0,40.5,30.09,WSW,247,7.0,20.0,81,0.00,,,-99.99,Weather View 32 v60,2013-11-15 02:25:00,
2013-11-14 18:35:00,46.0,40.8,30.08,West,270,13.0,21.0,82,0.00,,,-99.99,Weather View 32 v60,2013-11-15 02:35:00,
2013-11-14 18:40:00,46.0,40.8,30.08,NW,315,9.0,21.0,82,0.00,,,-99.99,Weather View 32 v60,2013-11-15 02:40:00,
2013-11-14 18:45:00,46.0,40.8,30.08,NW,315,9.0,21.0,82,0.00,,,-99.99,Weather View 32 v60,2013-11-15 02:45:00,
2013-11-14 18:55:00,46.0,41.7,30.08,NW,315,8.0,21.0,85,0.00,,,-99.99,Weather View 32 v60,2013-11-15 02:55:00,
2013-11-14 19:05:00,45.0,41.4,30.08,NW,315,10.0,21.0,87,0.00,,,-99.99,Weather View 32 v60,2013-11-15 03:05:00,
2013-11-14 19:10:00,45.0,41.4,30.08,NW,315,9.0,21.0,87,0.00,,,-99.99,Weather View 32 v60,2013-11-15 03:10:00,
2013-11-14 19:20:00,45.0,41.4,30.09,WNW,292,11.0,21.0,87,0.00,,,-99.99,Weather View 32 v60,2013-11-15 03:20:00,
2013-11-14 19:25:00,45.0,41.4,30.09,NW,315,8.0,21.0,87,0.00,,,-99.99,Weather View 32 v60,2013-11-15 03:25:00,
2013-11-14 19:30:00,45.0,41.4,30.09,WNW,292,17.0,18.0,87,0.00,,,-99.99,Weather View 32 v60,2013-11-15 03:30:00,
2013-11-14 19:40:00,45.0,41.4,30.08,NW,315,5.0,17.0,87,0.00,,,-99.99,Weather View 32 v60,2013-11-15 03:40:00,
2013-11-14 19:45:00,45.0,41.4,30.09,NW,315,7.0,17.0,87,0.00,,,-99.99,Weather View 32 v60,2013-11-15 03:45:00,
2013-11-14 19:55:00,45.0,40.5,30.08,West,270,3.0,17.0,84,0.00,,,-99.99,Weather View 32 v60,2013-11-15 03:55:00,
2013-11-14 20:00:00,45.0,40.8,30.08,West,270,5.0,17.0,85,0.00,,,-99.99,Weather View 32 v60,2013-11-15 04:00:00,
2013-11-14 20:10:00,45.0,40.5,30.08,West,270,7.0,17.0,84,0.00,,,-99.99,Weather View 32 v60,2013-11-15 04:10:00,
2013-11-14 20:15:00,45.0,40.5,30.08,NW,315,7.0,17.0,84,0.00,,,-99.99,Weather View 32 v60,2013-11-15 04:15:00,
2013-11-14 20:25:00,45.0,40.5,30.08,NW,315,5.0,17.0,84,0.00,,,-99.99,Weather View 32 v60,2013-11-15 04:25:00,
2013-11-14 20:30:00,45.0,41.9,30.08,NW,315,9.0,17.0,89,0.00,,,-99.99,Weather View 32 v60,2013-11-15 04:30:00,
2013-11-14 20:40:00,44.0,41.5,30.08,NW,315,8.0,13.0,91,0.00,,,-99.99,Weather View 32 v60,2013-11-15 04:40:00,
2013-11-14 20:46:00,44.0,41.5,30.09,NW,315,9.0,13.0,91,0.00,,,-99.99,Weather View 32 v60,2013-11-15 04:46:00,
2013-11-14 20:55:00,44.0,41.0,30.09,NW,315,5.0,14.0,89,0.00,,,-99.99,Weather View 32 v60,2013-11-15 04:55:00,
2013-11-14 21:00:00,44.0,41.0,30.09,NW,315,7.0,14.0,89,0.00,,,-99.99,Weather View 32 v60,2013-11-15 05:00:00,
2013-11-14 21:05:00,44.0,41.0,30.09,NW,315,4.0,14.0,89,0.00,,,-99.99,Weather View 32 v60,2013-11-15 05:05:00,
2013-11-14 21:10:00,44.0,39.5,30.09,NW,315,3.0,14.0,84,0.00,,,-99.99,Weather View 32 v60,2013-11-15 05:10:00,
2013-11-14 21:15:00,44.0,39.2,30.09,West,270,6.0,14.0,83,0.00,,,-99.99,Weather View 32 v60,2013-11-15 05:15:00,
2013-11-14 21:20:00,44.0,39.2,30.09,West,270,10.0,16.0,83,0.00,,,-99.99,Weather View 32 v60,2013-11-15 05:20:00,
2013-11-14 21:25:00,44.0,39.5,30.09,West,270,7.0,16.0,84,0.00,,,-99.99,Weather View 32 v60,2013-11-15 05:25:00,
2013-11-14 21:35:00,44.0,39.5,30.09,NW,315,6.0,16.0,84,0.00,,,-99.99,Weather View 32 v60,2013-11-15 05:35:00,
2013-11-14 21:40:00,44.0,39.5,30.09,West,270,7.0,16.0,84,0.00,,,-99.99,Weather View 32 v60,2013-11-15 05:40:00,
2013-11-14 21:45:00,44.0,39.5,30.09,West,270,3.0,16.0,84,0.00,,,-99.99,Weather View 32 v60,2013-11-15 05:45:00,
2013-11-14 21:50:00,44.0,41.0,30.09,NW,315,4.0,16.0,89,0.00,,,-99.99,Weather View 32 v60,2013-11-15 05:50:00,
2013-11-14 21:55:00,44.0,41.5,30.09,NW,315,5.0,16.0,91,0.00,,,-99.99,Weather View 32 v60,2013-11-15 05:55:00,
2013-11-14 22:00:00,44.0,41.5,30.09,NW,315,4.0,16.0,91,0.00,,,-99.99,Weather View 32 v60,2013-11-15 06:00:00,
2013-11-14 22:05:00,44.0,41.5,30.09,NW,315,7.0,16.0,91,0.00,,,-99.99,Weather View 32 v60,2013-11-15 06:05:00,
2013-11-14 22:15:00,44.0,41.5,30.09,NW,315,4.0,16.0,91,0.00,,,-99.99,Weather View 32 v60,2013-11-15 06:15:00,
2013-11-14 22:20:00,44.0,41.8,30.09,NW,315,5.0,16.0,92,0.00,,,-99.99,Weather View 32 v60,2013-11-15 06:20:00,
2013-11-14 22:30:00,44.0,42.1,30.08,NW,315,10.0,14.0,93,0.00,,,-99.99,Weather View 32 v60,2013-11-15 06:30:00,
2013-11-14 22:35:00,44.0,42.4,30.09,NW,315,6.0,14.0,94,0.00,,,-99.99,Weather View 32 v60,2013-11-15 06:35:00,
2013-11-14 22:45:00,44.0,42.4,30.09,NW,315,2.0,14.0,94,0.00,,,-99.99,Weather View 32 v60,2013-11-15 06:45:00,
2013-11-14 22:50:00,43.0,41.7,30.09,NW,315,7.0,14.0,95,0.00,,,-99.99,Weather View 32 v60,2013-11-15 06:50:00,
2013-11-14 22:55:00,43.0,41.9,30.08,NW,315,4.0,14.0,96,0.00,,,-99.99,Weather View 32 v60,2013-11-15 06:55:00,
2013-11-14 23:05:00,43.0,41.9,30.08,NNW,337,4.0,14.0,96,0.00,,,-99.99,Weather View 32 v60,2013-11-15 07:05:00,
2013-11-14 23:10:00,43.0,42.2,30.08,NW,315,9.0,14.0,97,0.00,,,-99.99,Weather View 32 v60,2013-11-15 07:10:00,
2013-11-14 23:20:00,43.0,42.5,30.08,NW,315,4.0,14.0,98,0.00,,,-99.99,Weather View 32 v60,2013-11-15 07:20:00,
2013-11-14 23:25:00,43.0,42.2,30.08,NW,315,3.0,10.0,97,0.00,,,-99.99,Weather View 32 v60,2013-11-15 07:25:00,
2013-11-14 23:30:00,43.0,41.9,30.08,NW,315,5.0,10.0,96,0.00,,,-99.99,Weather View 32 v60,2013-11-15 07:30:00,
2013-11-14 23:40:00,43.0,41.7,30.07,WNW,292,7.0,13.0,95,0.00,,,-99.99,Weather View 32 v60,2013-11-15 07:40:00,
2013-11-14 23:45:00,44.0,42.4,30.07,WNW,292,7.0,13.0,94,0.00,,,-99.99,Weather View 32 v60,2013-11-15 07:45:00,
2013-11-14 23:50:00,44.0,41.5,30.07,NW,315,3.0,13.0,91,0.00,,,-99.99,Weather View 32 v60,2013-11-15 07:50:00,
2013-11-14 23:55:00,44.0,41.5,30.06,NW,315,3.0,13.0,91,0.00,,,-99.99,Weather View 32 v60,2013-11-15 07:55:00,